Henderson, MN (56044)

3:16 AM CDT on September 29, 2016 (GMT -0500)
MesoWest | | Change Station
Active Advisory: Flood Warning

Elev 724 ft 44.58 °N, 93.89 °W | Updated 3 hours ago

Clear
Clear
51.0 °F
Feels Like 51.0 °F
N
0.0
Wind Variable Wind from North
Gusts 0.0 mph

Today
High -- | Low -- °F
--% Chance of Precip.
Yesterday
High -- | Low -- °F
Precip. -- in
Pressure 30.40 in
Visibility 10.0 miles
Clouds Clear
Dew Point Not available.
Humidity Not available.
Rainfall in
Snow Depth Not available.
7:11 AM 6:58 PM
Waning Crescent, 3% visible
METAR KGYL 290755Z AUTO 35003KT 10SM CLR 09/09 A3040 RMK AO2 T00890089
Pressure 30.40 in
Visibility 10.0 miles
Clouds Clear
Dew Point Not available.
Humidity Not available.
Rainfall in
Snow Depth Not available.
7:11 AM 6:58 PM
Waning Crescent, 3% visible
METAR KGYL 290755Z AUTO 35003KT 10SM CLR 09/09 A3040 RMK AO2 T00890089

10-Day Weather Forecast

Almanac

Astronomy

Sep. 29, 2016 Rise Set
Actual Time
Civil Twilight
Nautical Twilight
Astronomical Twilight
Moon
Length of Visible Light
Length of Day
Tomorrow will be .
, % of the Moon is Illuminated

Today's Extremes

State Highs State Lows

Community

WunderPhotos

Upload Photos

1,942,446 photos uploaded!

WunderBlog® & News

Nearby

Air Quality

  Air Quality AQ Index Pollutant
Not available.

Snow Depth

Station Depth Elevation

Earthquake Activity

City Distance Mag. Time & Date
Minimum magnitude displayed is 2.5.

Coastal Water Temperatures

Place Temperature

Stations

Nearby Weather Stations

Station Location Temp. Windchill Dew Point Humidity Wind Precip. Elev Updated Type
                   

Watches & Warnings

Flood Warning
Issued: 7:44 PM CDT Sep. 28, 2016 – National Weather Service

The Flood Warning continues for
the Minnesota river at Henderson until late Friday night.
* At 6:30 PM Wednesday the stage was 732.8 feet.
* Minor flooding is occurring and minor flooding is forecast.
* Flood stage is 732.0 feet.
* Forecast... the river will continue to fall to below flood stage by
Friday morning.
* Impact... at 732.0 feet... water begins impacting residences and
agricultural buildings north and south of Henderson.


Lat... Lon 4446 9399 4446 9388 4460 9379 4466 9382 4461 9393